Time;durP1;ratioP1;P1;durP2;ratioP2;P2;SDS_P1;SDS_P2;PMS_P1;PMS_P2;Temp;Humidity;BMP_temperature;BMP_pressure;BME280_temperature;BME280_humidity;BME280_pressure;Samples;Min_cycle;Max_cycle;Signal;HPM_P1;HPM_P2
2021/06/08 00:00:15;;;;;;;1.37;0.47;;;;;;;14.82;73.57;99222.11;1795465;76;21017;-55
2021/06/08 00:02:42;;;;;;;0.80;0.60;;;;;;;14.81;73.82;99223.08;1799047;76;21952;-54
2021/06/08 00:05:10;;;;;;;2.15;0.70;;;;;;;14.79;73.81;99222.35;1793491;76;21516;-56
2021/06/08 00:07:36;;;;;;;1.37;0.70;;;;;;;14.74;74.03;99213.19;1792182;76;20915;-54
2021/06/08 00:10:04;;;;;;;2.00;0.50;;;;;;;14.72;74.39;99211.08;1796986;76;21408;-56
2021/06/08 00:12:30;;;;;;;1.37;0.60;;;;;;;14.72;74.65;99216.98;1799718;76;21358;-53
2021/06/08 00:14:56;;;;;;;1.30;0.60;;;;;;;14.74;74.63;99212.33;1739329;80;21447;-55
2021/06/08 00:17:23;;;;;;;1.10;0.60;;;;;;;14.73;74.51;99215.52;1748329;78;21442;-54
2021/06/08 00:19:49;;;;;;;1.00;0.70;;;;;;;14.73;74.50;99205.17;1760787;79;20941;-54
2021/06/08 00:22:15;;;;;;;2.30;0.70;;;;;;;14.73;74.46;99203.81;1762471;78;20968;-53
2021/06/08 00:24:42;;;;;;;2.05;0.60;;;;;;;14.72;74.48;99203.44;1749244;78;21757;-55
2021/06/08 00:27:09;;;;;;;0.98;0.80;;;;;;;14.71;74.70;99196.32;1752271;78;21438;-53
2021/06/08 00:29:35;;;;;;;0.78;0.62;;;;;;;14.69;74.80;99194.20;1750532;78;21318;-55
2021/06/08 00:32:01;;;;;;;1.98;0.70;;;;;;;14.67;74.83;99194.31;1754449;78;21457;-52
2021/06/08 00:34:28;;;;;;;1.05;0.78;;;;;;;14.68;75.02;99191.11;1773407;78;20881;-57
2021/06/08 00:36:54;;;;;;;3.55;0.75;;;;;;;14.69;75.20;99192.84;1768059;78;21504;-53
2021/06/08 00:39:20;;;;;;;1.50;0.60;;;;;;;14.69;75.20;99192.84;1771323;78;21103;-57
2021/06/08 00:41:47;;;;;;;1.57;0.78;;;;;;;14.71;75.13;99198.54;1768632;78;21344;-55
2021/06/08 00:44:14;;;;;;;2.17;0.90;;;;;;;14.71;75.35;99198.54;1770431;78;21053;-54
2021/06/08 00:46:41;;;;;;;2.75;0.80;;;;;;;14.70;75.42;99193.23;1752699;79;21054;-56
2021/06/08 00:49:07;;;;;;;1.35;0.90;;;;;;;14.70;75.41;99187.33;1754672;79;21074;-55
2021/06/08 00:51:34;;;;;;;1.70;0.90;;;;;;;14.68;75.34;99185.70;1750840;79;21114;-55
2021/06/08 00:54:05;;;;;;;1.85;0.80;;;;;;;14.67;75.53;99188.03;1769573;78;21583;-57
2021/06/08 00:56:28;;;;;;;1.00;0.88;;;;;;;14.67;75.52;99194.31;1747806;80;21116;-54
2021/06/08 00:58:54;;;;;;;1.35;0.80;;;;;;;14.64;75.63;99186.40;1767571;78;21092;-54
2021/06/08 01:01:21;;;;;;;1.05;0.82;;;;;;;14.65;75.60;99195.39;1746309;80;21500;-55
2021/06/08 01:03:47;;;;;;;0.98;0.90;;;;;;;14.61;75.43;99192.06;1749952;80;21484;-54
2021/06/08 01:06:13;;;;;;;1.75;0.95;;;;;;;14.59;75.37;99198.08;1754827;79;22160;-53
2021/06/08 01:08:39;;;;;;;2.33;0.90;;;;;;;14.58;75.47;99195.47;1744033;80;21443;-54
2021/06/08 01:11:06;;;;;;;1.30;1.20;;;;;;;14.55;75.53;99201.10;1764367;78;21072;-53
2021/06/08 01:13:33;;;;;;;2.77;1.00;;;;;;;14.53;75.64;99193.12;1770650;78;20946;-54
2021/06/08 01:15:59;;;;;;;2.55;0.70;;;;;;;14.52;75.46;99192.73;1748908;80;21284;-54
2021/06/08 01:18:25;;;;;;;2.30;0.80;;;;;;;14.51;75.48;99199.61;1744615;80;20975;-57
2021/06/08 01:21:04;;;;;;;1.10;0.90;;;;;;;14.47;75.55;99198.95;1770342;78;21100;-55
2021/06/08 01:23:31;;;;;;;2.83;0.80;;;;;;;14.46;75.43;99202.64;1772172;78;21087;-54
2021/06/08 01:25:58;;;;;;;2.87;0.80;;;;;;;14.44;75.44;99199.20;1771127;78;21044;-56
2021/06/08 01:28:24;;;;;;;2.33;0.93;;;;;;;14.43;75.57;99193.89;1770783;78;21147;-58
2021/06/08 01:30:54;;;;;;;2.15;1.07;;;;;;;14.42;75.50;99205.20;1776545;78;20955;-53
2021/06/08 01:33:21;;;;;;;3.95;0.90;;;;;;;14.38;75.46;99201.84;1774616;78;21103;-54
2021/06/08 01:35:52;;;;;;;1.57;0.80;;;;;;;14.36;75.55;99215.11;1778271;78;21410;-54
2021/06/08 01:38:19;;;;;;;2.37;0.80;;;;;;;14.34;75.46;99213.86;1767635;78;21056;-55
2021/06/08 01:40:48;;;;;;;2.05;0.70;;;;;;;14.31;75.36;99208.65;1769097;78;21178;-57
2021/06/08 01:43:15;;;;;;;0.90;0.70;;;;;;;14.29;75.58;99214.66;1766575;78;21033;-57
2021/06/08 01:45:42;;;;;;;2.27;0.65;;;;;;;14.29;75.72;99216.53;1768462;78;22279;-57
2021/06/08 01:48:08;;;;;;;1.22;0.80;;;;;;;14.28;75.71;99217.50;1769510;78;21032;-59
2021/06/08 01:50:35;;;;;;;3.27;0.82;;;;;;;14.27;75.59;99217.98;1767710;78;21092;-58
2021/06/08 01:53:15;;;;;;;2.27;0.78;;;;;;;14.26;75.43;99227.08;1779872;78;21194;-59
2021/06/08 01:55:44;;;;;;;3.70;0.90;;;;;;;14.24;75.32;99222.73;1777418;78;21479;-57
2021/06/08 01:58:40;;;;;;;4.45;1.10;;;;;;;14.21;75.12;99227.88;1782751;78;21048;-57
2021/06/08 02:01:22;;;;;;;3.20;0.70;;;;;;;14.18;75.02;99228.11;1766697;78;22013;-58
2021/06/08 02:03:57;;;;;;;3.80;0.70;;;;;;;14.14;74.86;99233.34;1768682;78;21566;-58
2021/06/08 02:06:39;;;;;;;2.15;0.68;;;;;;;14.09;74.87;99234.66;1770336;78;21124;-58
2021/06/08 02:09:14;;;;;;;2.05;0.70;;;;;;;14.06;75.08;99228.97;1725844;78;21063;-56
2021/06/08 02:11:51;;;;;;;0.70;0.70;;;;;;;14.04;75.40;99226.85;1773819;78;21091;-58
2021/06/08 02:14:26;;;;;;;1.15;0.70;;;;;;;14.06;75.46;99238.44;1770475;78;21570;-58
2021/06/08 02:16:55;;;;;;;0.80;0.70;;;;;;;14.08;75.16;99234.28;1768469;78;21115;-58
2021/06/08 02:19:23;;;;;;;0.90;0.90;;;;;;;14.06;75.08;99233.03;1765216;78;21141;-58
2021/06/08 02:21:54;;;;;;;1.25;1.00;;;;;;;14.06;75.17;99227.62;1768248;78;21049;-57
2021/06/08 02:24:21;;;;;;;1.57;0.90;;;;;;;14.05;75.45;99231.30;1769157;78;21056;-57
2021/06/08 02:26:48;;;;;;;1.55;0.90;;;;;;;14.05;75.42;99240.77;1775941;78;21151;-58
2021/06/08 02:29:15;;;;;;;1.15;0.80;;;;;;;14.03;75.29;99237.33;1749360;78;21111;-58
2021/06/08 02:31:44;;;;;;;12.73;1.00;;;;;;;14.03;75.32;99236.45;1756541;78;21121;-58
2021/06/08 02:34:14;;;;;;;5.35;0.80;;;;;;;14.03;75.45;99231.05;1739892;79;21200;-57
2021/06/08 02:36:42;;;;;;;3.27;0.80;;;;;;;14.03;75.71;99233.27;1739246;79;21072;-58
2021/06/08 02:39:08;;;;;;;5.55;0.70;;;;;;;14.06;76.17;99233.52;1733757;80;21109;-59
2021/06/08 02:41:35;;;;;;;3.17;0.72;;;;;;;14.09;76.23;99237.37;1748538;79;21123;-58
2021/06/08 02:44:01;;;;;;;3.17;0.80;;;;;;;14.11;76.28;99234.94;1747207;79;22482;-58
2021/06/08 02:46:29;;;;;;;1.20;0.85;;;;;;;14.14;76.41;99237.41;1745797;79;21092;-56
2021/06/08 02:48:55;;;;;;;5.10;1.10;;;;;;;14.19;76.45;99239.81;1704892;80;21119;-58
2021/06/08 02:51:22;;;;;;;2.17;0.75;;;;;;;14.21;76.40;99241.89;1748167;79;21075;-57
2021/06/08 02:53:49;;;;;;;1.98;0.85;;;;;;;14.22;76.40;99241.79;1750048;79;20924;-57
2021/06/08 02:56:16;;;;;;;1.00;0.90;;;;;;;14.25;76.78;99240.72;1729488;79;21742;-59
2021/06/08 02:58:43;;;;;;;1.85;0.90;;;;;;;14.29;77.16;99241.73;1730225;79;20941;-58
2021/06/08 03:01:09;;;;;;;2.00;1.02;;;;;;;14.35;77.59;99244.50;1752594;79;20914;-58
2021/06/08 03:03:36;;;;;;;0.80;0.80;;;;;;;14.41;77.78;99242.73;1752068;79;21447;-59
2021/06/08 03:06:16;;;;;;;1.52;0.80;;;;;;;14.48;77.98;99248.08;1720839;79;20941;-58
2021/06/08 03:08:55;;;;;;;3.37;0.98;;;;;;;14.57;78.21;99249.26;1746451;79;21104;-59
2021/06/08 03:11:26;;;;;;;1.07;0.98;;;;;;;14.63;78.37;99252.38;1749529;79;20945;-60
2021/06/08 03:13:53;;;;;;;3.95;1.22;;;;;;;14.72;78.53;99246.78;1752366;79;20917;-58
2021/06/08 03:16:19;;;;;;;1.20;1.00;;;;;;;14.78;78.60;99240.94;1751997;79;20885;-59
2021/06/08 03:18:48;;;;;;;1.27;0.80;;;;;;;14.85;78.62;99246.77;1748753;78;20901;-59
2021/06/08 03:21:18;;;;;;;2.65;1.00;;;;;;;14.99;78.51;99250.17;1751676;79;21310;-58
2021/06/08 03:23:48;;;;;;;3.47;1.02;;;;;;;14.99;78.51;99250.17;1721239;79;20933;-59
2021/06/08 03:26:14;;;;;;;4.33;1.10;;;;;;;15.08;78.72;99245.42;1756429;79;21303;-59
2021/06/08 03:28:40;;;;;;;1.20;0.98;;;;;;;15.25;78.46;99252.78;1723410;79;21452;-58
2021/06/08 03:31:07;;;;;;;1.82;1.00;;;;;;;15.25;78.46;99252.78;1746625;79;20933;-58
2021/06/08 03:33:33;;;;;;;1.85;1.20;;;;;;;15.32;78.57;99251.34;1753968;79;21132;-59
2021/06/08 03:35:59;;;;;;;2.08;1.20;;;;;;;15.36;78.24;99252.84;1757960;79;21322;-59
2021/06/08 03:38:26;;;;;;;2.55;1.10;;;;;;;15.40;78.46;99247.06;1757930;79;20976;-57
2021/06/08 03:40:52;;;;;;;1.50;0.90;;;;;;;15.47;78.45;99247.00;1762983;79;21052;-58
2021/06/08 03:43:18;;;;;;;1.05;0.90;;;;;;;15.54;78.44;99250.13;1751532;79;21040;-59
2021/06/08 03:45:49;;;;;;;2.02;1.10;;;;;;;15.61;78.33;99249.16;1748599;79;22373;-59
2021/06/08 03:48:16;;;;;;;1.17;1.07;;;;;;;15.66;78.20;99251.89;1753903;78;21087;-58
2021/06/08 03:50:46;;;;;;;3.35;1.00;;;;;;;15.74;78.15;99251.30;1746908;79;21040;-58
2021/06/08 03:53:12;;;;;;;4.70;1.12;;;;;;;15.81;78.06;99246.66;1750253;79;21470;-58
2021/06/08 03:55:39;;;;;;;2.45;1.40;;;;;;;15.88;77.84;99253.33;1744259;79;22547;-59
2021/06/08 03:58:13;;;;;;;2.10;1.00;;;;;;;15.94;77.50;99259.25;1742189;79;21116;-59
2021/06/08 04:00:40;;;;;;;2.05;1.47;;;;;;;15.96;77.28;99254.09;1743423;79;21039;-57
2021/06/08 04:03:09;;;;;;;2.45;1.00;;;;;;;16.00;77.32;99252.84;1745589;79;21386;-57
2021/06/08 04:05:36;;;;;;;1.40;1.30;;;;;;;16.06;77.27;99252.88;1725341;79;20986;-57
2021/06/08 04:08:04;;;;;;;4.30;1.40;;;;;;;16.13;77.13;99259.55;1750183;79;21016;-58
2021/06/08 04:10:31;;;;;;;1.40;1.00;;;;;;;16.18;76.92;99251.90;1746621;79;21782;-58
2021/06/08 04:13:02;;;;;;;2.95;1.20;;;;;;;16.24;76.92;99257.73;1749040;79;21116;-58
2021/06/08 04:15:28;;;;;;;6.85;1.50;;;;;;;16.31;76.93;99262.67;1752543;79;21076;-58
2021/06/08 04:17:55;;;;;;;1.47;1.05;;;;;;;16.39;76.84;99267.00;1746823;79;21025;-58
2021/06/08 04:20:21;;;;;;;1.40;1.30;;;;;;;16.46;76.71;99264.16;1752442;79;22053;-58
2021/06/08 04:22:48;;;;;;;1.98;1.80;;;;;;;16.54;76.58;99269.34;1753643;79;21598;-59
2021/06/08 04:25:16;;;;;;;2.55;1.50;;;;;;;16.60;76.38;99266.62;1754191;79;21060;-59
2021/06/08 04:27:42;;;;;;;1.57;1.20;;;;;;;16.67;76.33;99265.69;1752430;79;21060;-58
2021/06/08 04:30:10;;;;;;;1.30;1.20;;;;;;;16.75;76.01;99272.23;1755788;79;21471;-59
2021/06/08 04:32:36;;;;;;;2.30;1.30;;;;;;;16.81;75.77;99269.50;1751556;79;21138;-57
2021/06/08 04:35:07;;;;;;;2.90;1.12;;;;;;;16.86;75.63;99269.98;1731939;80;21116;-58
2021/06/08 04:37:35;;;;;;;3.17;1.25;;;;;;;16.90;75.44;99271.47;1744865;79;21048;-58
2021/06/08 04:40:01;;;;;;;3.98;1.60;;;;;;;16.97;75.23;99272.69;1733903;80;21012;-60
2021/06/08 04:42:27;;;;;;;3.02;1.35;;;;;;;17.05;75.15;99273.41;1744070;79;21489;-57
2021/06/08 04:44:54;;;;;;;1.80;1.40;;;;;;;17.09;74.91;99267.62;1744474;79;21053;-58
2021/06/08 04:47:21;;;;;;;4.08;1.30;;;;;;;17.14;74.67;99269.94;1748090;79;21100;-58
2021/06/08 04:49:49;;;;;;;3.80;1.65;;;;;;;17.17;74.42;99262.90;1740041;79;21131;-58
2021/06/08 04:52:15;;;;;;;2.25;1.00;;;;;;;17.21;74.39;99261.14;1742633;79;20973;-58
2021/06/08 04:54:42;;;;;;;3.98;1.15;;;;;;;17.27;74.35;99265.20;1742908;79;20981;-59
2021/06/08 04:57:11;;;;;;;2.95;1.20;;;;;;;17.34;74.16;99268.66;1744862;79;21146;-58
2021/06/08 04:59:52;;;;;;;2.12;1.60;;;;;;;17.44;73.96;99268.73;1717065;81;21896;-57
2021/06/08 05:02:33;;;;;;;1.98;1.65;;;;;;;17.51;73.50;99262.30;1736275;79;21112;-57
2021/06/08 05:05:09;;;;;;;1.75;1.60;;;;;;;17.60;73.39;99262.89;1736511;80;21084;-58
2021/06/08 05:07:37;;;;;;;1.37;1.27;;;;;;;17.68;73.14;99262.63;1748969;81;21744;-56
2021/06/08 05:10:05;;;;;;;1.92;1.20;;;;;;;17.78;73.01;99262.19;1741262;81;20922;-59
2021/06/08 05:12:31;;;;;;;2.58;1.20;;;;;;;17.90;72.70;99253.48;1741659;81;20942;-58
2021/06/08 05:14:57;;;;;;;1.20;1.00;;;;;;;17.99;72.64;99252.69;1737915;81;21795;-59
2021/06/08 05:17:24;;;;;;;2.37;1.62;;;;;;;18.09;72.07;99254.98;1741132;81;21720;-59
2021/06/08 05:19:52;;;;;;;2.17;1.10;;;;;;;18.18;71.27;99253.32;1741543;81;21922;-59
2021/06/08 05:22:20;;;;;;;1.87;1.47;;;;;;;18.25;71.23;99255.00;1712981;81;20985;-58
2021/06/08 05:24:51;;;;;;;3.05;1.57;;;;;;;18.32;71.11;99259.78;1743637;81;22073;-58
2021/06/08 05:27:19;;;;;;;1.65;1.10;;;;;;;18.41;71.09;99256.24;1747766;81;21029;-57
2021/06/08 05:29:45;;;;;;;2.05;1.27;;;;;;;18.52;70.92;99260.25;1736810;81;21076;-58
2021/06/08 05:32:13;;;;;;;2.15;1.20;;;;;;;18.61;70.67;99257.24;1738523;80;21123;-58
2021/06/08 05:34:43;;;;;;;1.77;1.67;;;;;;;18.72;70.62;99257.13;1769032;78;21496;-57
2021/06/08 05:37:10;;;;;;;3.33;1.47;;;;;;;18.80;70.03;99256.44;1776944;78;21775;-59
2021/06/08 05:39:37;;;;;;;2.92;1.65;;;;;;;18.87;69.72;99254.41;1774345;78;21040;-57
2021/06/08 05:42:08;;;;;;;1.90;1.70;;;;;;;18.95;69.26;99256.94;1778062;78;21400;-57
2021/06/08 05:44:35;;;;;;;1.27;1.17;;;;;;;19.01;69.21;99260.47;1769927;78;20910;-58
2021/06/08 05:47:05;;;;;;;1.75;1.50;;;;;;;19.07;68.78;99262.13;1764868;78;20941;-59
2021/06/08 05:49:33;;;;;;;1.50;1.35;;;;;;;19.14;68.32;99265.19;1770073;80;21082;-58
2021/06/08 05:51:59;;;;;;;3.25;1.20;;;;;;;19.18;68.05;99260.66;1766017;78;21397;-58
2021/06/08 05:54:27;;;;;;;1.40;0.90;;;;;;;19.24;67.77;99260.09;1768921;78;21509;-61
2021/06/08 05:56:53;;;;;;;1.47;0.98;;;;;;;19.30;67.69;99265.51;1764600;80;21736;-61
2021/06/08 05:59:19;;;;;;;3.22;1.12;;;;;;;19.35;67.37;99260.48;1765067;80;21060;-59
2021/06/08 06:01:46;;;;;;;3.00;1.42;;;;;;;19.41;67.22;99263.13;1769851;80;21532;-60
2021/06/08 06:04:12;;;;;;;2.17;1.27;;;;;;;19.44;66.47;99265.09;1768751;80;21068;-58
2021/06/08 06:06:43;;;;;;;5.05;1.40;;;;;;;19.46;66.60;99261.72;1769228;80;21052;-59
2021/06/08 06:09:10;;;;;;;3.02;1.12;;;;;;;19.49;66.72;99266.05;1754247;80;20984;-58
2021/06/08 06:11:37;;;;;;;4.35;1.12;;;;;;;19.52;65.79;99256.22;1767702;78;20933;-59
2021/06/08 06:14:04;;;;;;;0.93;0.90;;;;;;;19.54;66.06;99260.55;1773245;80;21703;-57
2021/06/08 06:16:33;;;;;;;2.55;1.52;;;;;;;19.60;65.85;99257.23;1769199;80;20964;-61
2021/06/08 06:19:00;;;;;;;3.35;1.15;;;;;;;19.65;65.38;99254.92;1771440;78;20917;-58
2021/06/08 06:21:27;;;;;;;1.35;1.25;;;;;;;19.72;65.00;99253.01;1772094;80;20906;-59
2021/06/08 06:23:53;;;;;;;1.82;1.00;;;;;;;19.73;64.99;99250.14;1767262;78;20909;-59
2021/06/08 06:26:19;;;;;;;1.10;1.00;;;;;;;19.77;65.14;99246.59;1773829;78;21080;-58
2021/06/08 06:28:46;;;;;;;1.35;0.90;;;;;;;19.78;65.12;99245.09;1770789;80;20985;-58
2021/06/08 06:31:12;;;;;;;1.67;1.35;;;;;;;19.81;65.11;99245.31;1769386;78;21124;-59
2021/06/08 06:33:47;;;;;;;5.08;1.10;;;;;;;19.86;65.01;99241.13;1766289;79;21227;-58
2021/06/08 06:36:11;;;;;;;0.95;0.85;;;;;;;19.92;64.96;99234.22;1768150;78;21091;-58
2021/06/08 06:38:37;;;;;;;3.22;0.90;;;;;;;19.98;64.69;99238.63;1749265;80;21056;-59
2021/06/08 06:41:06;;;;;;;2.55;0.98;;;;;;;20.06;64.29;99235.16;1764291;78;21433;-60
2021/06/08 06:43:33;;;;;;;1.67;0.90;;;;;;;20.09;64.12;99230.74;1772050;80;21016;-59
2021/06/08 06:45:59;;;;;;;1.25;1.00;;;;;;;20.13;64.26;99236.79;1767014;80;21024;-59
2021/06/08 06:48:26;;;;;;;2.22;1.07;;;;;;;20.17;63.86;99234.97;1770610;80;21115;-60
2021/06/08 06:50:53;;;;;;;1.62;1.02;;;;;;;20.21;64.32;99229.58;1766599;80;21446;-59
2021/06/08 06:53:19;;;;;;;0.90;0.80;;;;;;;20.28;64.23;99236.17;1774563;80;21630;-60
2021/06/08 06:55:50;;;;;;;2.15;0.90;;;;;;;20.37;64.22;99239.92;1764916;80;21546;-61
2021/06/08 06:58:18;;;;;;;5.42;1.20;;;;;;;20.44;63.97;99238.31;1769440;78;21722;-60
2021/06/08 07:00:45;;;;;;;2.55;1.00;;;;;;;20.49;62.98;99239.25;1767148;78;20961;-58
2021/06/08 07:03:13;;;;;;;2.15;1.15;;;;;;;20.53;63.27;99242.89;1765568;80;21132;-57
2021/06/08 07:05:39;;;;;;;1.65;1.20;;;;;;;20.55;62.84;99238.14;1775348;80;21057;-59
2021/06/08 07:08:06;;;;;;;3.58;0.90;;;;;;;20.57;62.93;99242.10;1768192;80;21059;-59
2021/06/08 07:10:32;;;;;;;0.98;0.80;;;;;;;20.57;62.29;99240.73;1765221;78;21056;-57
2021/06/08 07:13:04;;;;;;;2.27;1.10;;;;;;;20.61;61.92;99239.41;1765792;80;21056;-59
2021/06/08 07:15:27;;;;;;;1.20;0.90;;;;;;;20.65;61.16;99240.84;1766569;80;21483;-58
2021/06/08 07:17:54;;;;;;;1.10;0.85;;;;;;;20.68;61.11;99241.89;1766509;78;21494;-60
2021/06/08 07:20:20;;;;;;;1.25;0.78;;;;;;;20.72;60.68;99246.06;1769335;80;21076;-59
2021/06/08 07:22:47;;;;;;;0.90;0.70;;;;;;;20.76;60.60;99247.47;1769323;80;21111;-59
2021/06/08 07:25:15;;;;;;;2.42;0.80;;;;;;;20.79;60.39;99241.71;1767016;78;21135;-60
2021/06/08 07:27:41;;;;;;;0.80;0.80;;;;;;;20.83;60.35;99243.14;1768499;80;21168;-59
2021/06/08 07:30:09;;;;;;;2.65;0.60;;;;;;;20.88;60.21;99234.47;1765532;80;21044;-61
2021/06/08 07:32:59;;;;;;;1.80;0.68;;;;;;;20.94;59.99;99243.42;1762856;80;21040;-61
2021/06/08 07:35:36;;;;;;;1.17;0.70;;;;;;;21.00;59.13;99236.87;1765738;78;21509;-58
2021/06/08 07:38:08;;;;;;;0.90;0.70;;;;;;;21.06;59.30;99236.75;1779669;78;21298;-60
2021/06/08 07:40:45;;;;;;;0.80;0.75;;;;;;;21.13;58.77;99236.48;1759344;79;21759;-60
2021/06/08 07:43:12;;;;;;;1.52;0.88;;;;;;;21.21;58.73;99236.61;1770116;78;21057;-59
2021/06/08 07:45:45;;;;;;;2.58;0.60;;;;;;;21.29;57.84;99237.21;1769569;78;21063;-58
2021/06/08 07:48:17;;;;;;;0.62;0.62;;;;;;;21.34;57.25;99235.75;1769444;78;21036;-60
2021/06/08 07:50:51;;;;;;;1.17;0.80;;;;;;;21.41;56.72;99224.53;1768265;78;20969;-61
2021/06/08 07:53:18;;;;;;;0.62;0.62;;;;;;;21.46;55.75;99229.02;1743459;80;21101;-59
2021/06/08 07:55:48;;;;;;;1.27;0.70;;;;;;;21.52;55.95;99225.65;1765849;80;21685;-60
2021/06/08 07:58:25;;;;;;;4.58;0.80;;;;;;;21.57;56.29;99225.70;1768689;80;21049;-59
2021/06/08 08:00:50;;;;;;;0.93;0.80;;;;;;;21.67;56.95;99230.60;1768684;78;21495;-57
2021/06/08 08:03:26;;;;;;;1.27;0.82;;;;;;;21.70;56.36;99233.01;1764607;78;21311;-61
2021/06/08 08:05:55;;;;;;;1.45;1.00;;;;;;;21.73;55.92;99235.44;1771999;80;21087;-59
2021/06/08 08:08:21;;;;;;;2.58;0.98;;;;;;;21.71;55.51;99224.64;1742067;80;22192;-58
2021/06/08 08:10:49;;;;;;;1.72;0.70;;;;;;;21.67;55.87;99227.86;1768674;80;21692;-60
2021/06/08 08:13:16;;;;;;;1.12;0.70;;;;;;;21.66;56.29;99242.57;1764396;80;21371;-59
2021/06/08 08:15:45;;;;;;;3.70;0.90;;;;;;;21.64;55.94;99233.64;1767665;80;21080;-59
2021/06/08 08:18:12;;;;;;;7.35;0.80;;;;;;;21.57;55.98;99233.41;1767081;80;22473;-58
2021/06/08 08:20:46;;;;;;;1.62;0.90;;;;;;;21.50;56.17;99230.95;1764693;80;21013;-59
2021/06/08 08:23:13;;;;;;;1.40;0.90;;;;;;;21.47;55.86;99238.09;1767244;78;21041;-58
2021/06/08 08:25:40;;;;;;;3.75;0.82;;;;;;;21.42;56.22;99246.79;1766218;80;21142;-57
2021/06/08 08:28:07;;;;;;;3.30;1.00;;;;;;;21.44;56.58;99237.89;1765344;78;21119;-60
2021/06/08 08:30:33;;;;;;;1.90;1.35;;;;;;;21.48;56.32;99239.83;1765220;80;21860;-60
2021/06/08 08:33:00;;;;;;;2.45;1.20;;;;;;;21.55;57.10;99245.02;1767564;80;21582;-59
2021/06/08 08:35:26;;;;;;;1.17;0.90;;;;;;;21.60;56.61;99241.84;1767915;78;22319;-59
2021/06/08 08:37:53;;;;;;;0.82;0.82;;;;;;;21.65;56.96;99242.22;1761882;78;21104;-58
2021/06/08 08:40:20;;;;;;;1.32;0.93;;;;;;;21.71;56.80;99239.70;1770139;78;21063;-58
2021/06/08 08:42:49;;;;;;;2.35;0.80;;;;;;;21.73;56.31;99239.05;1774005;78;22218;-61
2021/06/08 08:45:16;;;;;;;1.20;0.80;;;;;;;21.74;56.20;99233.92;1767223;80;21080;-60
2021/06/08 08:47:44;;;;;;;1.00;0.90;;;;;;;21.77;56.93;99238.23;1768034;80;20878;-61
2021/06/08 08:50:14;;;;;;;1.70;1.00;;;;;;;21.76;56.43;99239.25;1763472;78;20964;-59
2021/06/08 08:52:46;;;;;;;3.17;1.00;;;;;;;21.72;56.48;99235.95;1766987;80;20946;-59
2021/06/08 08:55:13;;;;;;;1.00;0.90;;;;;;;21.72;56.63;99233.21;1771349;78;21460;-61
2021/06/08 08:57:45;;;;;;;2.10;0.80;;;;;;;21.77;57.33;99225.91;1765349;78;20906;-57
2021/06/08 09:02:46;;;;;;;4.00;0.80;;;;;;;21.88;56.45;99221.53;1864001;75;29502;-55
2021/06/08 09:05:12;;;;;;;1.10;1.00;;;;;;;21.86;55.83;99224.42;1839035;77;21044;-57
2021/06/08 09:07:38;;;;;;;1.52;0.72;;;;;;;21.86;55.33;99220.31;1839619;76;21321;-58
2021/06/08 09:10:09;;;;;;;2.15;0.90;;;;;;;21.83;55.67;99212.94;1839641;76;21514;-55
2021/06/08 09:12:36;;;;;;;3.58;0.72;;;;;;;21.82;56.09;99212.58;1841578;77;20836;-57
2021/06/08 09:15:07;;;;;;;2.08;1.07;;;;;;;21.82;56.28;99218.06;1841139;77;21749;-56
2021/06/08 09:17:39;;;;;;;3.35;0.75;;;;;;;21.78;56.13;99218.02;1846776;77;21223;-58
2021/06/08 09:20:04;;;;;;;2.15;0.80;;;;;;;21.70;56.22;99220.17;1840643;77;21378;-61
2021/06/08 09:22:57;;;;;;;0.80;0.80;;;;;;;21.68;56.40;99223.60;1773513;79;20910;-57
2021/06/08 09:27:45;;;;;;;2.75;0.88;;;;;;;21.86;57.46;99215.37;1773383;78;28102;-56
2021/06/08 09:30:14;;;;;;;1.67;1.00;;;;;;;21.89;57.09;99216.41;1747446;80;21034;-56
2021/06/08 09:32:41;;;;;;;1.02;0.90;;;;;;;21.95;57.63;99220.41;1726547;80;22153;-54
2021/06/08 09:35:09;;;;;;;1.67;1.00;;;;;;;21.96;58.70;99227.58;1750978;80;21606;-59
2021/06/08 09:37:42;;;;;;;1.90;0.90;;;;;;;21.92;59.64;99231.67;1742439;80;21161;-58
2021/06/08 09:40:22;;;;;;;0.90;0.80;;;;;;;21.86;60.45;99248.25;1747483;80;21020;-59
2021/06/08 09:43:08;;;;;;;4.08;1.20;;;;;;;21.71;61.77;99229.25;1748002;80;21315;-59
2021/06/08 09:45:47;;;;;;;3.77;0.70;;;;;;;21.59;63.46;99231.39;1738546;80;20942;-58
2021/06/08 09:48:14;;;;;;;1.42;0.60;;;;;;;21.38;62.92;99225.33;1751100;80;20965;-59
2021/06/08 09:50:43;;;;;;;2.27;0.50;;;;;;;21.15;62.45;99224.39;1749779;80;20955;-59
2021/06/08 09:53:26;;;;;;;1.32;1.05;;;;;;;20.98;62.06;99218.37;1718649;81;21502;-60
2021/06/08 09:56:02;;;;;;;0.90;0.70;;;;;;;20.84;62.02;99216.12;1695699;82;21054;-57
2021/06/08 09:58:30;;;;;;;4.72;0.65;;;;;;;20.73;63.84;99213.10;1691279;82;22092;-58
2021/06/08 10:01:17;;;;;;;2.05;0.60;;;;;;;20.60;64.40;99219.91;1710818;82;20907;-58
2021/06/08 10:03:51;;;;;;;1.25;0.60;;;;;;;20.52;65.43;99211.09;1704218;82;21054;-58
2021/06/08 10:06:38;;;;;;;3.33;0.62;;;;;;;20.49;67.06;99211.91;1707815;82;21222;-58
2021/06/08 10:09:12;;;;;;;2.17;0.60;;;;;;;20.44;68.35;99217.81;1706124;82;21503;-56
2021/06/08 10:11:41;;;;;;;1.90;0.50;;;;;;;20.44;69.24;99210.98;1707110;82;21569;-57
2021/06/08 10:14:11;;;;;;;1.50;1.00;;;;;;;20.46;69.57;99209.47;1706730;82;21496;-58
2021/06/08 10:16:38;;;;;;;0.80;0.68;;;;;;;20.49;69.91;99211.91;1711935;82;20984;-58
2021/06/08 10:19:04;;;;;;;1.77;0.78;;;;;;;20.52;69.61;99207.49;1712287;82;20915;-57
2021/06/08 10:21:47;;;;;;;1.47;0.60;;;;;;;20.56;70.01;99205.69;1710342;82;21520;-57
2021/06/08 10:26:41;;;;;;;2.12;0.50;;;;;;;20.73;70.97;99184.89;1865319;75;28232;-55
2021/06/08 10:29:09;;;;;;;0.62;0.50;;;;;;;20.73;69.70;99182.16;1849333;75;20960;-57
2021/06/08 10:31:38;;;;;;;3.02;0.50;;;;;;;20.79;69.51;99181.53;1779683;78;21669;-56
2021/06/08 10:34:06;;;;;;;1.30;0.70;;;;;;;20.85;69.79;99179.55;1785484;79;21362;-57
2021/06/08 10:36:34;;;;;;;1.30;0.60;;;;;;;20.92;69.70;99183.42;1775674;79;20928;-56
2021/06/08 10:39:06;;;;;;;3.70;0.75;;;;;;;21.00;70.83;99193.09;1750180;79;21460;-57
2021/06/08 10:41:34;;;;;;;0.65;0.53;;;;;;;21.06;70.97;99198.44;1774325;79;20894;-57
2021/06/08 10:44:01;;;;;;;1.95;0.70;;;;;;;21.07;69.95;99198.30;1762320;79;21362;-56
2021/06/08 10:46:32;;;;;;;3.58;0.70;;;;;;;21.06;69.16;99195.20;1765788;79;20934;-56
2021/06/08 10:48:59;;;;;;;1.92;0.80;;;;;;;21.07;68.80;99194.19;1762626;79;20899;-57
2021/06/08 10:51:26;;;;;;;0.80;0.80;;;;;;;21.13;69.05;99183.13;1760742;79;20954;-56
2021/06/08 10:53:56;;;;;;;2.17;0.70;;;;;;;21.22;69.29;99181.38;1763299;79;20914;-59
2021/06/08 10:56:26;;;;;;;2.55;0.80;;;;;;;21.28;69.21;99187.08;1761188;79;21679;-57
2021/06/08 10:59:00;;;;;;;1.05;0.88;;;;;;;21.29;69.23;99185.20;1768171;79;20888;-54
2021/06/08 11:01:40;;;;;;;0.82;0.80;;;;;;;21.30;69.48;99180.08;1764698;80;21504;-56
2021/06/08 11:04:23;;;;;;;0.80;0.75;;;;;;;21.30;69.07;99186.42;1761828;80;20971;-55
2021/06/08 11:06:57;;;;;;;1.37;0.70;;;;;;;21.30;68.94;99187.79;1766943;79;21303;-57
2021/06/08 11:09:32;;;;;;;2.62;1.20;;;;;;;21.29;68.62;99191.54;1760103;79;21458;-56
2021/06/08 11:12:10;;;;;;;1.40;0.70;;;;;;;21.26;67.65;99191.88;1762262;79;20926;-55
2021/06/08 11:14:57;;;;;;;1.22;0.70;;;;;;;21.24;67.28;99192.52;1762815;79;21091;-58
2021/06/08 11:17:35;;;;;;;0.90;0.70;;;;;;;21.22;66.91;99190.95;1756332;79;21082;-57
2021/06/08 11:20:15;;;;;;;2.85;0.70;;;;;;;21.15;66.76;99199.75;1758798;79;21519;-56
2021/06/08 11:22:50;;;;;;;2.52;0.68;;;;;;;21.08;66.89;99199.16;1757372;79;21884;-56
2021/06/08 11:25:41;;;;;;;1.62;0.70;;;;;;;21.02;66.66;99197.88;1751444;79;21365;-55
2021/06/08 11:28:13;;;;;;;1.00;0.60;;;;;;;20.95;66.44;99198.14;1734150;80;21090;-55
2021/06/08 11:30:58;;;;;;;4.62;0.60;;;;;;;20.89;65.90;99196.03;1733784;80;21339;-55
2021/06/08 11:33:39;;;;;;;0.70;0.60;;;;;;;20.88;65.68;99194.80;1728738;80;21076;-57
2021/06/08 11:36:24;;;;;;;2.72;0.75;;;;;;;20.87;65.75;99188.98;1732783;80;22112;-59
2021/06/08 11:38:54;;;;;;;1.87;0.70;;;;;;;20.88;66.30;99183.36;1734140;80;21079;-57
2021/06/08 11:41:20;;;;;;;4.62;0.70;;;;;;;20.91;66.39;99180.83;1727077;80;21108;-57
2021/06/08 11:43:59;;;;;;;1.50;0.60;;;;;;;20.92;66.26;99177.95;1732580;80;21432;-55
2021/06/08 11:46:35;;;;;;;1.95;0.60;;;;;;;20.90;66.30;99170.90;1732207;80;22345;-56
2021/06/08 11:49:09;;;;;;;0.60;0.60;;;;;;;20.82;65.90;99168.94;1729735;80;21088;-57
2021/06/08 11:51:41;;;;;;;0.60;0.57;;;;;;;20.74;65.44;99158.77;1732354;80;21044;-56